Time;durP1;ratioP1;P1;durP2;ratioP2;P2;SDS_P1;SDS_P2;PMS_P1;PMS_P2;Temp;Humidity;BMP_temperature;BMP_pressure;BME280_temperature;BME280_humidity;BME280_pressure;Samples;Min_cycle;Max_cycle;Signal;HPM_P1;HPM_P2
2021/04/06 00:22:51;;;;;;;0.50;0.50;;;;;;;;;;5190936;27;20380;-50
2021/04/06 00:25:19;;;;;;;0.40;0.40;;;;;;;;;;5172223;27;20025;-49
2021/04/06 00:27:47;;;;;;;0.28;0.28;;;;;;;;;;5171339;27;20019;-51
2021/04/06 00:30:16;;;;;;;0.20;0.20;;;;;;;;;;5171657;27;20433;-50
2021/04/06 00:32:43;;;;;;;0.47;0.47;;;;;;;;;;5171563;27;20113;-50
2021/04/06 00:35:09;;;;;;;0.68;0.65;;;;;;;;;;5170837;27;20067;-49
2021/04/06 00:37:48;;;;;;;0.73;0.73;;;;;;;;;;5170451;27;20041;-52
2021/04/06 00:40:16;;;;;;;0.40;0.40;;;;;;;;;;5170423;27;20509;-53
2021/04/06 00:42:42;;;;;;;0.20;0.20;;;;;;;;;;5170491;27;20109;-55
2021/04/06 00:45:11;;;;;;;0.30;0.30;;;;;;;;;;5152358;27;20022;-52
2021/04/06 00:47:38;;;;;;;0.50;0.50;;;;;;;;;;5170912;27;20098;-51
2021/04/06 00:50:08;;;;;;;0.30;0.30;;;;;;;;;;5170131;27;20019;-55
2021/04/06 00:52:46;;;;;;;0.30;0.30;;;;;;;;;;5151340;27;20038;-50
2021/04/06 00:55:17;;;;;;;0.28;0.28;;;;;;;;;;5169433;27;20045;-53
2021/04/06 00:57:43;;;;;;;0.20;0.20;;;;;;;;;;5169917;27;20495;-53
2021/04/06 01:00:12;;;;;;;0.25;0.25;;;;;;;;;;5169960;27;20035;-52
2021/04/06 01:02:39;;;;;;;0.20;0.20;;;;;;;;;;5170329;27;20090;-54
2021/04/06 01:05:08;;;;;;;0.20;0.20;;;;;;;;;;5170288;27;20021;-50
2021/04/06 01:07:35;;;;;;;0.30;0.30;;;;;;;;;;5170190;27;20023;-51
2021/04/06 01:10:01;;;;;;;2.08;1.98;;;;;;;;;;5170218;27;20030;-55
2021/04/06 01:12:28;;;;;;;0.50;0.50;;;;;;;;;;5169617;27;20398;-54
2021/04/06 01:14:55;;;;;;;2.38;2.28;;;;;;;;;;5169143;27;20429;-55
2021/04/06 01:17:25;;;;;;;0.30;0.30;;;;;;;;;;5151688;27;20075;-50
2021/04/06 01:19:52;;;;;;;0.30;0.30;;;;;;;;;;5153798;27;20597;-54
2021/04/06 01:22:18;;;;;;;0.30;0.30;;;;;;;;;;5160262;27;20164;-54
2021/04/06 01:24:45;;;;;;;0.30;0.30;;;;;;;;;;5155242;27;20041;-54
2021/04/06 01:27:18;;;;;;;0.30;0.30;;;;;;;;;;5149527;27;20023;-51
2021/04/06 01:29:53;;;;;;;0.73;0.73;;;;;;;;;;5149266;27;20092;-52
2021/04/06 01:32:19;;;;;;;1.00;0.40;;;;;;;;;;5150636;27;20043;-52
2021/04/06 01:34:46;;;;;;;0.45;0.45;;;;;;;;;;5153524;27;20027;-50
2021/04/06 01:37:12;;;;;;;0.20;0.20;;;;;;;;;;5151288;27;20066;-51
2021/04/06 01:39:39;;;;;;;0.30;0.30;;;;;;;;;;5149096;27;20019;-49
2021/04/06 01:42:07;;;;;;;0.30;0.30;;;;;;;;;;5149414;27;20075;-53
2021/04/06 01:44:34;;;;;;;0.30;0.30;;;;;;;;;;5149505;27;20019;-54
2021/04/06 01:47:01;;;;;;;0.28;0.28;;;;;;;;;;5152884;27;20121;-51
2021/04/06 01:49:27;;;;;;;0.20;0.20;;;;;;;;;;5152064;27;20049;-52
2021/04/06 01:51:54;;;;;;;7.22;0.40;;;;;;;;;;5148993;27;20066;-51
2021/04/06 01:54:21;;;;;;;0.20;0.20;;;;;;;;;;5148444;27;20022;-53
2021/04/06 01:56:53;;;;;;;0.30;0.30;;;;;;;;;;5148985;27;20025;-52
2021/04/06 01:59:48;;;;;;;0.30;0.30;;;;;;;;;;5131488;27;20378;-53
2021/04/06 02:02:10;;;;;;;1.85;0.45;;;;;;;;;;5136076;27;20035;-49
2021/04/06 02:04:37;;;;;;;0.35;0.35;;;;;;;;;;5151980;27;20054;-51
2021/04/06 02:07:05;;;;;;;0.40;0.40;;;;;;;;;;5153383;27;20080;-51
2021/04/06 02:09:31;;;;;;;0.20;0.20;;;;;;;;;;5148568;27;20440;-50
2021/04/06 02:11:58;;;;;;;0.30;0.30;;;;;;;;;;5148974;27;20031;-50
2021/04/06 02:14:25;;;;;;;0.40;0.40;;;;;;;;;;5149247;27;20399;-49
2021/04/06 02:16:51;;;;;;;0.28;0.28;;;;;;;;;;5135080;27;20030;-52
2021/04/06 02:19:35;;;;;;;0.30;0.30;;;;;;;;;;5150599;27;20015;-51
2021/04/06 02:22:04;;;;;;;0.30;0.30;;;;;;;;;;5154719;27;20111;-51
2021/04/06 02:24:33;;;;;;;0.30;0.30;;;;;;;;;;5148408;27;20027;-52
2021/04/06 02:27:15;;;;;;;0.30;0.30;;;;;;;;;;5148405;27;20076;-53
2021/04/06 02:29:42;;;;;;;0.30;0.30;;;;;;;;;;5148493;27;20114;-51
2021/04/06 02:32:10;;;;;;;0.25;0.25;;;;;;;;;;5150744;27;20035;-52
2021/04/06 02:34:41;;;;;;;0.30;0.30;;;;;;;;;;5150212;27;20118;-51
2021/04/06 02:37:11;;;;;;;0.47;0.47;;;;;;;;;;5153147;27;20109;-52
2021/04/06 02:39:38;;;;;;;0.30;0.30;;;;;;;;;;5147944;27;20529;-52
2021/04/06 02:42:27;;;;;;;0.40;0.40;;;;;;;;;;5148203;27;20421;-51
2021/04/06 02:44:55;;;;;;;0.43;0.43;;;;;;;;;;5139983;27;20034;-51
2021/04/06 02:47:22;;;;;;;0.85;0.85;;;;;;;;;;5148757;27;20404;-53
2021/04/06 02:49:48;;;;;;;0.30;0.30;;;;;;;;;;5152672;27;20026;-53
2021/04/06 02:52:15;;;;;;;0.20;0.20;;;;;;;;;;5148987;27;20039;-52
2021/04/06 02:54:41;;;;;;;0.25;0.25;;;;;;;;;;5147668;27;20022;-53
2021/04/06 02:57:20;;;;;;;0.30;0.30;;;;;;;;;;5147556;27;20088;-49
2021/04/06 02:59:46;;;;;;;0.20;0.20;;;;;;;;;;5147857;27;20035;-54
2021/04/06 03:02:12;;;;;;;0.30;0.30;;;;;;;;;;5149589;27;20028;-51
2021/04/06 03:04:43;;;;;;;0.47;0.47;;;;;;;;;;5150659;27;20031;-52
2021/04/06 03:07:19;;;;;;;0.28;0.28;;;;;;;;;;5149208;27;20034;-55
2021/04/06 03:09:52;;;;;;;0.30;0.30;;;;;;;;;;5147473;27;20029;-54
2021/04/06 03:12:19;;;;;;;0.40;0.40;;;;;;;;;;5147679;27;20416;-56
2021/04/06 03:14:46;;;;;;;8.57;0.77;;;;;;;;;;5147389;27;20057;-50
2021/04/06 03:17:12;;;;;;;0.30;0.30;;;;;;;;;;5149449;27;20496;-50
2021/04/06 03:19:39;;;;;;;0.30;0.30;;;;;;;;;;5150448;27;20015;-50
2021/04/06 03:22:08;;;;;;;0.30;0.30;;;;;;;;;;5148601;27;20047;-51
2021/04/06 03:24:34;;;;;;;1.35;1.17;;;;;;;;;;5147347;27;20026;-52
2021/04/06 03:27:01;;;;;;;0.20;0.20;;;;;;;;;;5146888;27;20046;-53
2021/04/06 03:29:28;;;;;;;0.28;0.28;;;;;;;;;;5147366;27;20024;-52
2021/04/06 03:31:55;;;;;;;0.30;0.30;;;;;;;;;;5151726;27;20030;-54
2021/04/06 03:34:21;;;;;;;0.30;0.30;;;;;;;;;;5149729;27;20512;-53
2021/04/06 03:36:47;;;;;;;0.30;0.30;;;;;;;;;;5147087;27;20415;-52
2021/04/06 03:39:14;;;;;;;0.30;0.30;;;;;;;;;;5147224;27;20491;-50
2021/04/06 03:41:40;;;;;;;0.30;0.30;;;;;;;;;;5147310;27;20054;-52
2021/04/06 03:44:08;;;;;;;0.30;0.30;;;;;;;;;;5149640;27;20014;-50
2021/04/06 03:46:35;;;;;;;0.22;0.22;;;;;;;;;;5149691;27;20027;-49
2021/04/06 03:49:17;;;;;;;0.30;0.30;;;;;;;;;;5148763;27;20061;-53
2021/04/06 03:51:47;;;;;;;3.20;1.00;;;;;;;;;;5146079;27;20049;-52
2021/04/06 03:54:32;;;;;;;0.85;0.85;;;;;;;;;;5147029;27;20531;-53
2021/04/06 03:57:00;;;;;;;0.20;0.20;;;;;;;;;;5146595;27;20037;-51
2021/04/06 03:59:29;;;;;;;0.32;0.25;;;;;;;;;;5146936;27;20023;-53
2021/04/06 04:01:56;;;;;;;0.22;0.22;;;;;;;;;;5151326;27;20039;-51
2021/04/06 04:04:22;;;;;;;0.20;0.20;;;;;;;;;;5148158;27;20031;-55
2021/04/06 04:06:48;;;;;;;0.30;0.30;;;;;;;;;;5146536;27;20022;-55
2021/04/06 04:09:14;;;;;;;0.30;0.30;;;;;;;;;;5146348;27;20026;-51
2021/04/06 04:11:41;;;;;;;0.20;0.20;;;;;;;;;;5146113;27;20043;-55
2021/04/06 04:14:07;;;;;;;0.30;0.30;;;;;;;;;;5149016;27;20015;-57
2021/04/06 04:16:36;;;;;;;0.20;0.20;;;;;;;;;;5129861;27;20038;-50
2021/04/06 04:19:03;;;;;;;0.30;0.30;;;;;;;;;;5149946;27;20031;-49
2021/04/06 04:21:29;;;;;;;0.20;0.20;;;;;;;;;;5145940;27;20053;-52
2021/04/06 04:23:55;;;;;;;0.30;0.30;;;;;;;;;;5145814;27;20019;-54
2021/04/06 04:26:21;;;;;;;0.30;0.30;;;;;;;;;;5146659;27;20027;-55
2021/04/06 04:28:47;;;;;;;0.43;0.43;;;;;;;;;;5150147;27;20026;-51
2021/04/06 04:31:15;;;;;;;0.30;0.30;;;;;;;;;;5147751;27;20132;-50
2021/04/06 04:33:41;;;;;;;0.20;0.20;;;;;;;;;;5145855;27;20449;-51
2021/04/06 04:36:07;;;;;;;0.40;0.40;;;;;;;;;;5145943;27;20023;-51
2021/04/06 04:38:33;;;;;;;0.40;0.40;;;;;;;;;;5145868;27;20066;-54
2021/04/06 04:40:59;;;;;;;0.40;0.40;;;;;;;;;;5149560;27;20440;-54
2021/04/06 04:43:25;;;;;;;0.20;0.20;;;;;;;;;;5148270;27;20027;-53
2021/04/06 04:45:52;;;;;;;0.20;0.20;;;;;;;;;;5146339;27;20031;-52
2021/04/06 04:48:18;;;;;;;0.10;0.10;;;;;;;;;;5145495;27;20101;-51
2021/04/06 04:50:44;;;;;;;0.20;0.20;;;;;;;;;;5145649;27;20031;-54
2021/04/06 04:53:10;;;;;;;0.20;0.20;;;;;;;;;;5148257;27;20014;-54
2021/04/06 04:55:36;;;;;;;0.30;0.30;;;;;;;;;;5148689;27;20026;-55
2021/04/06 04:58:02;;;;;;;0.40;0.40;;;;;;;;;;5149358;27;20027;-49
2021/04/06 05:00:28;;;;;;;0.40;0.40;;;;;;;;;;5149530;27;20038;-57
2021/04/06 05:02:54;;;;;;;0.30;0.30;;;;;;;;;;5148833;27;20048;-51
2021/04/06 05:05:20;;;;;;;1.00;0.40;;;;;;;;;;5154202;27;20029;-52
2021/04/06 05:07:47;;;;;;;0.30;0.30;;;;;;;;;;5156926;27;20014;-50
2021/04/06 05:10:15;;;;;;;0.30;0.30;;;;;;;;;;5156202;27;20083;-50
2021/04/06 05:12:41;;;;;;;0.28;0.28;;;;;;;;;;5157994;27;20022;-52
2021/04/06 05:15:08;;;;;;;0.30;0.30;;;;;;;;;;5146938;27;20019;-50
2021/04/06 05:17:34;;;;;;;0.40;0.40;;;;;;;;;;5147032;27;20034;-51
2021/04/06 05:20:01;;;;;;;0.40;0.40;;;;;;;;;;5157703;27;20030;-54
2021/04/06 05:22:27;;;;;;;0.30;0.30;;;;;;;;;;5155200;27;20078;-49
2021/04/06 05:24:53;;;;;;;0.20;0.20;;;;;;;;;;5152095;27;20031;-49
2021/04/06 05:27:19;;;;;;;0.40;0.40;;;;;;;;;;5152125;27;20029;-49
2021/04/06 05:29:46;;;;;;;0.30;0.30;;;;;;;;;;5137732;27;20500;-50
2021/04/06 05:32:12;;;;;;;0.30;0.30;;;;;;;;;;5147750;27;20070;-55
2021/04/06 05:34:38;;;;;;;0.30;0.30;;;;;;;;;;5132892;27;20058;-53
2021/04/06 05:37:04;;;;;;;0.40;0.40;;;;;;;;;;5156744;27;20042;-51
2021/04/06 05:39:30;;;;;;;0.32;0.32;;;;;;;;;;5156829;27;20521;-50
2021/04/06 05:41:56;;;;;;;0.30;0.30;;;;;;;;;;5151239;27;20087;-50
2021/04/06 05:44:22;;;;;;;0.30;0.30;;;;;;;;;;5151874;27;20027;-50
2021/04/06 05:46:50;;;;;;;0.30;0.30;;;;;;;;;;5156220;27;20033;-50
2021/04/06 05:49:21;;;;;;;0.40;0.40;;;;;;;;;;5155855;27;20022;-49
2021/04/06 05:51:47;;;;;;;0.32;0.32;;;;;;;;;;5157183;27;20038;-49
2021/04/06 05:54:14;;;;;;;0.30;0.30;;;;;;;;;;5138947;27;20590;-50
2021/04/06 05:56:40;;;;;;;0.30;0.30;;;;;;;;;;5157897;27;20030;-52
2021/04/06 05:59:07;;;;;;;0.30;0.30;;;;;;;;;;5147899;27;20433;-53
2021/04/06 06:01:34;;;;;;;0.30;0.30;;;;;;;;;;5144168;27;20426;-50
2021/04/06 06:04:01;;;;;;;0.30;0.30;;;;;;;;;;5154358;27;20023;-48
2021/04/06 06:06:27;;;;;;;0.30;0.30;;;;;;;;;;5151989;27;20030;-50
2021/04/06 06:08:57;;;;;;;0.22;0.22;;;;;;;;;;5153320;27;20041;-48
2021/04/06 06:11:23;;;;;;;0.32;0.32;;;;;;;;;;5142488;27;20028;-49
2021/04/06 06:13:50;;;;;;;0.40;0.40;;;;;;;;;;5144528;27;20058;-53
2021/04/06 06:16:18;;;;;;;0.20;0.20;;;;;;;;;;5145263;27;20037;-53
2021/04/06 06:18:54;;;;;;;0.30;0.30;;;;;;;;;;5134625;27;20025;-49
2021/04/06 06:21:41;;;;;;;0.30;0.30;;;;;;;;;;5125624;27;20135;-54
2021/04/06 06:24:08;;;;;;;0.73;0.73;;;;;;;;;;5128133;27;20027;-49
2021/04/06 06:26:34;;;;;;;0.30;0.30;;;;;;;;;;5125395;27;20030;-51
2021/04/06 06:29:05;;;;;;;0.40;0.40;;;;;;;;;;5124245;27;20018;-51
2021/04/06 06:31:42;;;;;;;0.30;0.30;;;;;;;;;;5126165;27;20035;-51
2021/04/06 06:34:44;;;;;;;0.30;0.30;;;;;;;;;;5127423;27;20099;-48
2021/04/06 06:37:11;;;;;;;0.30;0.30;;;;;;;;;;5041955;28;20033;-53
2021/04/06 06:39:39;;;;;;;0.30;0.30;;;;;;;;;;5040929;28;20112;-50
2021/04/06 06:42:09;;;;;;;0.30;0.30;;;;;;;;;;5044781;28;20033;-54
2021/04/06 06:44:35;;;;;;;0.60;0.60;;;;;;;;;;5043700;28;20482;-52
2021/04/06 06:47:02;;;;;;;0.30;0.30;;;;;;;;;;5042367;28;20442;-52
2021/04/06 06:49:36;;;;;;;0.73;0.73;;;;;;;;;;5040929;28;20078;-54
2021/04/06 06:52:02;;;;;;;0.30;0.30;;;;;;;;;;5042133;28;20111;-51
2021/04/06 06:54:41;;;;;;;0.25;0.25;;;;;;;;;;5044109;28;20025;-48
2021/04/06 06:57:08;;;;;;;0.30;0.30;;;;;;;;;;5045634;28;20059;-49
2021/04/06 06:59:38;;;;;;;0.30;0.30;;;;;;;;;;5043892;28;20036;-50
2021/04/06 07:02:22;;;;;;;0.30;0.30;;;;;;;;;;5024594;28;20032;-50
2021/04/06 07:04:49;;;;;;;3.72;2.05;;;;;;;;;;5039546;28;20538;-59
2021/04/06 07:07:16;;;;;;;0.40;0.40;;;;;;;;;;5043421;28;20132;-61
2021/04/06 07:09:42;;;;;;;3.33;0.68;;;;;;;;;;5029103;28;20116;-58
2021/04/06 07:12:10;;;;;;;0.30;0.30;;;;;;;;;;5116081;27;20039;-58
2021/04/06 07:14:38;;;;;;;0.20;0.20;;;;;;;;;;5122261;27;20031;-58
2021/04/06 07:17:05;;;;;;;0.88;0.88;;;;;;;;;;5121781;27;20031;-58
2021/04/06 07:19:42;;;;;;;0.20;0.20;;;;;;;;;;5123049;27;20412;-58
2021/04/06 07:22:10;;;;;;;0.50;0.50;;;;;;;;;;5137468;27;20119;-58
2021/04/06 07:24:37;;;;;;;0.60;0.32;;;;;;;;;;5146402;27;20027;-58
2021/04/06 07:27:07;;;;;;;0.20;0.20;;;;;;;;;;5146496;27;20071;-58
2021/04/06 07:29:33;;;;;;;0.30;0.30;;;;;;;;;;5145036;27;20432;-58
2021/04/06 07:32:00;;;;;;;0.40;0.40;;;;;;;;;;5132623;27;20442;-58
2021/04/06 07:34:26;;;;;;;1.35;0.95;;;;;;;;;;5140186;27;20026;-60
2021/04/06 07:36:53;;;;;;;2.20;0.60;;;;;;;;;;5146433;27;20023;-58
2021/04/06 07:39:19;;;;;;;1.75;1.23;;;;;;;;;;5149671;27;20034;-58
2021/04/06 07:41:47;;;;;;;0.20;0.20;;;;;;;;;;5145570;27;20052;-58
2021/04/06 07:44:14;;;;;;;0.40;0.30;;;;;;;;;;5145639;27;20022;-59
2021/04/06 07:46:45;;;;;;;0.20;0.20;;;;;;;;;;5136970;27;20031;-60
2021/04/06 07:49:33;;;;;;;0.35;0.35;;;;;;;;;;5146920;27;20492;-61
2021/04/06 07:52:00;;;;;;;2.05;0.40;;;;;;;;;;5144534;27;20427;-60
2021/04/06 07:54:26;;;;;;;0.88;0.30;;;;;;;;;;5147118;27;20019;-61
2021/04/06 07:57:05;;;;;;;0.57;0.57;;;;;;;;;;5147772;27;20027;-61
2021/04/06 07:59:34;;;;;;;0.35;0.35;;;;;;;;;;5145438;27;20026;-61
2021/04/06 08:02:01;;;;;;;10.52;0.70;;;;;;;;;;5144635;27;20098;-58
2021/04/06 08:04:30;;;;;;;0.20;0.20;;;;;;;;;;5139591;27;20460;-58
2021/04/06 08:06:57;;;;;;;0.82;0.32;;;;;;;;;;5125542;27;20015;-58
2021/04/06 08:09:33;;;;;;;0.40;0.40;;;;;;;;;;5139737;27;20069;-58
2021/04/06 08:12:06;;;;;;;0.10;0.10;;;;;;;;;;5140608;27;20113;-58
2021/04/06 08:14:39;;;;;;;6.22;0.50;;;;;;;;;;5136280;27;20034;-58
2021/04/06 08:17:25;;;;;;;0.88;0.85;;;;;;;;;;5139737;27;20034;-58
2021/04/06 08:19:57;;;;;;;1.40;0.80;;;;;;;;;;5140511;27;20169;-58
2021/04/06 08:22:28;;;;;;;0.20;0.20;;;;;;;;;;5139775;27;20106;-59
2021/04/06 08:25:14;;;;;;;1.40;1.40;;;;;;;;;;5139012;27;20045;-60
2021/04/06 08:27:40;;;;;;;6.00;2.25;;;;;;;;;;5146594;27;20019;-59
2021/04/06 08:30:18;;;;;;;1.73;1.15;;;;;;;;;;5146524;27;20023;-60
2021/04/06 08:32:57;;;;;;;1.95;0.73;;;;;;;;;;5142558;27;20042;-59
2021/04/06 08:35:42;;;;;;;0.20;0.20;;;;;;;;;;5150689;27;20059;-58
2021/04/06 08:38:23;;;;;;;0.90;0.40;;;;;;;;;;5150654;27;20056;-60
2021/04/06 08:40:51;;;;;;;1.00;0.45;;;;;;;;;;5149728;27;20027;-59
2021/04/06 08:43:18;;;;;;;0.20;0.20;;;;;;;;;;5153226;27;20054;-58
2021/04/06 08:45:54;;;;;;;0.75;0.40;;;;;;;;;;5135511;27;20049;-60
2021/04/06 08:48:39;;;;;;;0.70;0.40;;;;;;;;;;5143198;27;20027;-60
2021/04/06 08:51:25;;;;;;;0.10;0.10;;;;;;;;;;5146899;27;20031;-59
2021/04/06 08:53:53;;;;;;;1.55;1.10;;;;;;;;;;5146021;27;20385;-60
2021/04/06 08:56:22;;;;;;;1.02;0.90;;;;;;;;;;5142319;27;20105;-59
2021/04/06 08:58:48;;;;;;;0.13;0.13;;;;;;;;;;5138755;27;20038;-58
2021/04/06 09:01:14;;;;;;;10.25;0.40;;;;;;;;;;5143909;27;20034;-59
2021/04/06 09:03:40;;;;;;;0.30;0.20;;;;;;;;;;5127099;27;20063;-59
2021/04/06 09:06:11;;;;;;;0.30;0.30;;;;;;;;;;5143247;27;20030;-60
2021/04/06 09:08:55;;;;;;;0.98;0.50;;;;;;;;;;5141328;27;20417;-60
2021/04/06 09:11:25;;;;;;;0.30;0.30;;;;;;;;;;5138891;27;20026;-62
2021/04/06 09:13:52;;;;;;;8.20;0.63;;;;;;;;;;5145889;27;20111;-62
2021/04/06 09:16:28;;;;;;;0.40;0.40;;;;;;;;;;5139630;27;20167;-64
2021/04/06 09:18:54;;;;;;;0.20;0.20;;;;;;;;;;5144317;27;20027;-60
2021/04/06 09:21:22;;;;;;;1.95;0.55;;;;;;;;;;5127159;27;20044;-64
2021/04/06 09:23:50;;;;;;;7.30;0.68;;;;;;;;;;5101065;28;20027;-59
2021/04/06 09:26:17;;;;;;;1.42;1.05;;;;;;;;;;5099444;28;20039;-63
2021/04/06 09:28:43;;;;;;;5.28;0.65;;;;;;;;;;5101566;28;20055;-60
2021/04/06 09:31:09;;;;;;;0.40;0.40;;;;;;;;;;5106496;28;20034;-63
2021/04/06 09:33:36;;;;;;;0.50;0.30;;;;;;;;;;5102951;28;20024;-60
2021/04/06 09:36:03;;;;;;;0.45;0.45;;;;;;;;;;5101094;28;20024;-59
2021/04/06 09:38:29;;;;;;;0.22;0.22;;;;;;;;;;5106795;28;20052;-60
2021/04/06 09:40:56;;;;;;;0.32;0.32;;;;;;;;;;5104431;28;20031;-60
2021/04/06 09:43:22;;;;;;;4.55;2.85;;;;;;;;;;5098456;28;20028;-61
2021/04/06 09:45:49;;;;;;;1.92;0.30;;;;;;;;;;5100139;28;20036;-60
2021/04/06 09:48:16;;;;;;;0.60;0.55;;;;;;;;;;5104524;28;20046;-60
2021/04/06 09:50:55;;;;;;;1.88;0.20;;;;;;;;;;5104611;28;20052;-62
2021/04/06 09:53:22;;;;;;;0.35;0.35;;;;;;;;;;5109023;28;20030;-60
2021/04/06 09:55:48;;;;;;;6.55;0.90;;;;;;;;;;5097206;28;20041;-60
2021/04/06 09:58:14;;;;;;;0.65;0.55;;;;;;;;;;5096399;28;20032;-64
2021/04/06 10:00:43;;;;;;;0.30;0.30;;;;;;;;;;5096428;28;20038;-59
2021/04/06 10:03:14;;;;;;;1.08;0.73;;;;;;;;;;5102965;28;20038;-60
2021/04/06 10:05:43;;;;;;;7.72;0.95;;;;;;;;;;5102036;28;20133;-54
2021/04/06 10:08:09;;;;;;;1.95;0.30;;;;;;;;;;5104371;28;20035;-59
2021/04/06 10:10:35;;;;;;;0.28;0.22;;;;;;;;;;5101772;28;20031;-60
2021/04/06 10:13:03;;;;;;;0.95;0.77;;;;;;;;;;5101175;28;20027;-62
2021/04/06 10:15:30;;;;;;;0.50;0.50;;;;;;;;;;5102772;28;20036;-61
2021/04/06 10:17:56;;;;;;;0.25;0.25;;;;;;;;;;5101991;28;20433;-59
2021/04/06 10:20:24;;;;;;;3.15;1.25;;;;;;;;;;5105458;28;20027;-60
2021/04/06 10:22:52;;;;;;;0.30;0.30;;;;;;;;;;5146218;27;20046;-60
2021/04/06 10:25:25;;;;;;;2.45;0.35;;;;;;;;;;5147405;27;20076;-60
2021/04/06 10:27:56;;;;;;;3.60;0.93;;;;;;;;;;5147677;27;20018;-61
2021/04/06 10:30:34;;;;;;;1.55;0.50;;;;;;;;;;5147791;27;20638;-61
2021/04/06 10:33:10;;;;;;;0.20;0.20;;;;;;;;;;5147861;27;20103;-60
2021/04/06 10:35:46;;;;;;;1.05;0.70;;;;;;;;;;5147145;27;20079;-60
2021/04/06 10:38:35;;;;;;;0.68;0.68;;;;;;;;;;5144529;27;20022;-60
2021/04/06 10:41:04;;;;;;;1.58;0.30;;;;;;;;;;5123242;27;20392;-60
2021/04/06 10:43:31;;;;;;;0.17;0.17;;;;;;;;;;5145073;27;20507;-59
2021/04/06 10:46:07;;;;;;;0.52;0.40;;;;;;;;;;5147098;27;20059;-60
2021/04/06 10:48:33;;;;;;;;;;;;;;;;;;5144511;27;20046;-61
2021/04/06 10:50:59;;;;;;;;;;;;;;;;;;5148618;27;19911;-60
2021/04/06 10:53:25;;;;;;;;;;;;;;;;;;5143960;27;19980;-59
2021/04/06 10:55:56;;;;;;;1.65;0.30;;;;;;;;;;5146114;27;19914;-62
2021/04/06 10:58:23;;;;;;;0.20;0.20;;;;;;;;;;5146323;27;20027;-60
2021/04/06 11:00:55;;;;;;;0.63;0.38;;;;;;;;;;5140261;27;20027;-59
2021/04/06 11:03:22;;;;;;;0.40;0.40;;;;;;;;;;5139763;27;20110;-60
2021/04/06 11:05:48;;;;;;;0.38;0.38;;;;;;;;;;5143745;27;20030;-59
2021/04/06 11:08:17;;;;;;;0.30;0.30;;;;;;;;;;5144849;27;20104;-59
2021/04/06 11:10:43;;;;;;;3.72;0.90;;;;;;;;;;5139172;27;20384;-59
2021/04/06 11:13:10;;;;;;;0.30;0.30;;;;;;;;;;5141157;27;20026;-60
2021/04/06 11:15:36;;;;;;;0.30;0.30;;;;;;;;;;5146133;27;20027;-61
2021/04/06 11:18:02;;;;;;;1.10;0.40;;;;;;;;;;5145467;27;20085;-60
2021/04/06 11:20:28;;;;;;;0.10;0.10;;;;;;;;;;5139228;27;20103;-63
2021/04/06 11:22:55;;;;;;;0.38;0.38;;;;;;;;;;5103115;28;20114;-61
2021/04/06 11:25:21;;;;;;;0.25;0.25;;;;;;;;;;5105818;28;20484;-60
2021/04/06 11:27:47;;;;;;;0.10;0.10;;;;;;;;;;5098810;28;20023;-59
2021/04/06 11:30:13;;;;;;;0.20;0.20;;;;;;;;;;5103430;28;20024;-60
2021/04/06 11:32:39;;;;;;;0.85;0.68;;;;;;;;;;5104183;28;20391;-60
2021/04/06 11:35:06;;;;;;;1.75;0.35;;;;;;;;;;5103772;28;20023;-59
2021/04/06 11:37:32;;;;;;;1.80;0.50;;;;;;;;;;5101637;28;20045;-60
2021/04/06 11:39:58;;;;;;;0.32;0.30;;;;;;;;;;5102776;28;20023;-59
2021/04/06 11:42:24;;;;;;;0.57;0.30;;;;;;;;;;5100512;28;20028;-61
2021/04/06 11:44:50;;;;;;;0.65;0.50;;;;;;;;;;5104763;28;20456;-61
2021/04/06 11:47:17;;;;;;;1.55;0.82;;;;;;;;;;5103839;28;20028;-63
2021/04/06 11:49:43;;;;;;;0.15;0.15;;;;;;;;;;5098976;28;20039;-59
2021/04/06 11:52:09;;;;;;;1.95;0.88;;;;;;;;;;5103715;28;20637;-59
2021/04/06 11:54:35;;;;;;;0.20;0.20;;;;;;;;;;5105436;28;20097;-59
2021/04/06 11:57:02;;;;;;;0.55;0.55;;;;;;;;;;5099102;28;20025;-59
2021/04/06 11:59:29;;;;;;;0.98;0.98;;;;;;;;;;5105083;28;20030;-59
2021/04/06 12:01:56;;;;;;;0.77;0.50;;;;;;;;;;5105137;28;20115;-60
2021/04/06 12:04:22;;;;;;;0.20;0.20;;;;;;;;;;5103005;28;20530;-59
2021/04/06 12:06:48;;;;;;;0.30;0.30;;;;;;;;;;5104609;28;20023;-59
2021/04/06 12:09:14;;;;;;;0.10;0.10;;;;;;;;;;5106136;28;20035;-59
2021/04/06 12:11:41;;;;;;;0.20;0.20;;;;;;;;;;5100412;28;20028;-59
2021/04/06 12:14:07;;;;;;;0.20;0.20;;;;;;;;;;5102514;28;20051;-59
2021/04/06 12:16:34;;;;;;;0.30;0.30;;;;;;;;;;5102186;28;20039;-60
2021/04/06 12:19:00;;;;;;;0.98;0.98;;;;;;;;;;5104444;28;20028;-59
2021/04/06 12:21:26;;;;;;;0.52;0.35;;;;;;;;;;5105106;28;20497;-59
2021/04/06 12:23:53;;;;;;;0.25;0.25;;;;;;;;;;5105726;28;20528;-59
2021/04/06 12:26:19;;;;;;;0.20;0.20;;;;;;;;;;5103107;28;20026;-59
2021/04/06 12:28:45;;;;;;;0.10;0.10;;;;;;;;;;5103196;28;20497;-60
2021/04/06 12:31:11;;;;;;;0.40;0.40;;;;;;;;;;5104605;28;20479;-60
2021/04/06 12:33:37;;;;;;;0.20;0.20;;;;;;;;;;5105574;28;20523;-59
2021/04/06 12:36:04;;;;;;;0.45;0.20;;;;;;;;;;5104536;28;20016;-60
2021/04/06 12:38:30;;;;;;;0.20;0.20;;;;;;;;;;5103825;28;20085;-59
2021/04/06 12:40:56;;;;;;;0.20;0.20;;;;;;;;;;5103464;28;20038;-59
2021/04/06 12:43:23;;;;;;;2.65;1.35;;;;;;;;;;5104906;28;20028;-59
2021/04/06 12:45:49;;;;;;;0.30;0.30;;;;;;;;;;5105288;28;20016;-60
2021/04/06 12:48:15;;;;;;;3.40;0.52;;;;;;;;;;5102644;28;20077;-60
2021/04/06 12:50:41;;;;;;;0.80;0.80;;;;;;;;;;5103235;28;20091;-59
2021/04/06 12:53:07;;;;;;;0.63;0.38;;;;;;;;;;5103506;28;20031;-59
2021/04/06 12:55:33;;;;;;;1.30;1.10;;;;;;;;;;5104019;28;20016;-60
2021/04/06 12:58:00;;;;;;;0.10;0.10;;;;;;;;;;5102814;28;20034;-60
2021/04/06 13:00:26;;;;;;;0.10;0.10;;;;;;;;;;5104464;28;20023;-60
2021/04/06 13:02:52;;;;;;;0.25;0.25;;;;;;;;;;5103609;28;20431;-60
2021/04/06 13:05:18;;;;;;;0.20;0.20;;;;;;;;;;5103994;28;20080;-60
2021/04/06 13:07:45;;;;;;;0.20;0.20;;;;;;;;;;5102214;28;20105;-59
2021/04/06 13:10:12;;;;;;;0.15;0.15;;;;;;;;;;5099072;28;20533;-61
2021/04/06 13:12:38;;;;;;;0.20;0.20;;;;;;;;;;5094027;28;20051;-59
2021/04/06 13:15:06;;;;;;;0.20;0.20;;;;;;;;;;5095438;28;20020;-60
2021/04/06 13:17:32;;;;;;;0.20;0.20;;;;;;;;;;5094127;28;20098;-61
2021/04/06 13:19:58;;;;;;;0.15;0.15;;;;;;;;;;5098389;28;20031;-59
2021/04/06 13:22:24;;;;;;;0.98;0.40;;;;;;;;;;5105208;28;20178;-59
2021/04/06 13:24:50;;;;;;;0.82;0.50;;;;;;;;;;5100536;28;20012;-59
2021/04/06 13:27:17;;;;;;;1.90;0.25;;;;;;;;;;5103650;28;20526;-60
2021/04/06 13:29:43;;;;;;;2.92;0.80;;;;;;;;;;5101134;28;20027;-59
2021/04/06 13:32:09;;;;;;;0.10;0.10;;;;;;;;;;5099740;28;20122;-60
2021/04/06 13:34:35;;;;;;;0.10;0.10;;;;;;;;;;5098039;28;20476;-60
2021/04/06 13:37:01;;;;;;;0.20;0.20;;;;;;;;;;5108488;28;20084;-59
2021/04/06 13:39:30;;;;;;;0.20;0.20;;;;;;;;;;5107274;28;20027;-60
2021/04/06 13:41:56;;;;;;;0.20;0.20;;;;;;;;;;5108526;28;20027;-59
2021/04/06 13:44:22;;;;;;;0.20;0.20;;;;;;;;;;5104128;28;20024;-61
2021/04/06 13:46:49;;;;;;;1.67;0.43;;;;;;;;;;5104854;28;20034;-60
2021/04/06 13:49:15;;;;;;;0.10;0.10;;;;;;;;;;5106240;28;20074;-60
2021/04/06 13:51:41;;;;;;;0.52;0.52;;;;;;;;;;5108930;28;20044;-61
2021/04/06 13:54:07;;;;;;;0.28;0.10;;;;;;;;;;5105697;28;20389;-60
2021/04/06 13:56:36;;;;;;;0.20;0.20;;;;;;;;;;5109211;28;20061;-59
2021/04/06 13:59:02;;;;;;;0.45;0.40;;;;;;;;;;5103993;28;20526;-60
2021/04/06 14:01:28;;;;;;;0.80;0.28;;;;;;;;;;5104559;28;20047;-62
2021/04/06 14:03:54;;;;;;;0.20;0.20;;;;;;;;;;5105940;28;20055;-60
2021/04/06 14:06:20;;;;;;;2.63;0.30;;;;;;;;;;5102534;28;20409;-60
2021/04/06 14:08:46;;;;;;;0.20;0.20;;;;;;;;;;5105609;28;20027;-60
2021/04/06 14:11:12;;;;;;;4.85;0.43;;;;;;;;;;5103647;28;20039;-60
2021/04/06 14:13:38;;;;;;;0.10;0.10;;;;;;;;;;5103486;28;20047;-60
2021/04/06 14:16:05;;;;;;;0.20;0.20;;;;;;;;;;5105378;28;20040;-59
2021/04/06 14:18:32;;;;;;;0.10;0.10;;;;;;;;;;5106193;28;20053;-60
2021/04/06 14:20:58;;;;;;;0.10;0.10;;;;;;;;;;5105938;27;20421;-61
2021/04/06 14:23:28;;;;;;;0.17;0.17;;;;;;;;;;5105385;28;20049;-59
2021/04/06 14:26:00;;;;;;;2.47;0.52;;;;;;;;;;5102964;28;20031;-60
2021/04/06 14:28:27;;;;;;;0.10;0.10;;;;;;;;;;5100695;28;20020;-60
2021/04/06 14:30:54;;;;;;;0.10;0.10;;;;;;;;;;5106220;28;20024;-62
2021/04/06 14:33:22;;;;;;;0.20;0.20;;;;;;;;;;5106711;28;20036;-60
2021/04/06 14:35:49;;;;;;;0.20;0.20;;;;;;;;;;5107032;28;20077;-59
2021/04/06 14:38:15;;;;;;;0.10;0.10;;;;;;;;;;5103361;28;20027;-59
2021/04/06 14:40:42;;;;;;;0.10;0.10;;;;;;;;;;5102426;28;20544;-59
2021/04/06 14:43:10;;;;;;;6.93;0.43;;;;;;;;;;5106071;28;20028;-60
2021/04/06 14:45:37;;;;;;;0.93;0.55;;;;;;;;;;5106273;28;20046;-60
2021/04/06 14:48:04;;;;;;;0.20;0.20;;;;;;;;;;5100559;28;20027;-62
2021/04/06 14:50:30;;;;;;;0.22;0.22;;;;;;;;;;5102881;28;20020;-61
2021/04/06 14:52:57;;;;;;;0.10;0.10;;;;;;;;;;5099913;28;20024;-61
2021/04/06 14:55:23;;;;;;;0.10;0.10;;;;;;;;;;5098374;28;20459;-61
2021/04/06 14:57:49;;;;;;;0.10;0.10;;;;;;;;;;5098613;28;20023;-61
2021/04/06 15:00:16;;;;;;;0.20;0.20;;;;;;;;;;5101863;28;20024;-61
2021/04/06 15:02:43;;;;;;;4.25;0.25;;;;;;;;;;5101321;28;20036;-61
2021/04/06 15:05:10;;;;;;;1.77;0.20;;;;;;;;;;5107274;28;20024;-60
2021/04/06 15:07:37;;;;;;;0.20;0.20;;;;;;;;;;5106650;28;20031;-60
2021/04/06 15:10:04;;;;;;;0.20;0.20;;;;;;;;;;5104152;28;20106;-60
2021/04/06 15:12:30;;;;;;;0.57;0.40;;;;;;;;;;5105099;28;20156;-60